Time;durP1;ratioP1;P1;durP2;ratioP2;P2;SDS_P1;SDS_P2;PMS_P1;PMS_P2;Temp;Humidity;BMP_temperature;BMP_pressure;BME280_temperature;BME280_humidity;BME280_pressure;Samples;Min_cycle;Max_cycle;Signal;HPM_P1;HPM_P2
2021/09/11 00:01:31;;;;;;;77.70;43.70;;;18.20;99.90;;;;;;5069569;28;20516;-81
2021/09/11 00:03:56;;;;;;;75.05;43.90;;;18.20;99.90;;;;;;5068759;28;20505;-79
2021/09/11 00:06:22;;;;;;;71.95;43.30;;;18.20;99.90;;;;;;5052327;28;20082;-79
2021/09/11 00:08:47;;;;;;;69.60;43.35;;;18.20;99.90;;;;;;5054872;28;20048;-79
2021/09/11 00:11:13;;;;;;;88.22;44.83;;;18.20;99.90;;;;;;5048247;28;20051;-79
2021/09/11 00:13:39;;;;;;;90.10;44.85;;;18.20;99.90;;;;;;5051728;28;20055;-79
2021/09/11 00:16:05;;;;;;;73.20;41.80;;;18.10;99.90;;;;;;5067129;28;20056;-79
2021/09/11 00:18:31;;;;;;;95.85;45.47;;;18.20;99.90;;;;;;5055083;28;20047;-80
2021/09/11 00:20:57;;;;;;;80.22;42.97;;;18.20;99.90;;;;;;5053193;28;20257;-79
2021/09/11 00:23:23;;;;;;;85.35;43.80;;;18.20;99.90;;;;;;5050909;28;20226;-79
2021/09/11 00:25:48;;;;;;;77.60;42.50;;;18.20;99.90;;;;;;5083592;28;20047;-79
2021/09/11 00:28:14;;;;;;;74.30;41.13;;;18.30;99.90;;;;;;5049350;28;20498;-79
2021/09/11 00:30:40;;;;;;;71.28;39.72;;;18.20;99.90;;;;;;5053735;28;20048;-79
2021/09/11 00:33:05;;;;;;;67.05;38.60;;;18.20;99.90;;;;;;5072310;28;20058;-79
2021/09/11 00:35:31;;;;;;;75.70;38.85;;;18.20;99.90;;;;;;5072890;28;20174;-80
2021/09/11 00:37:57;;;;;;;61.75;36.47;;;18.20;99.90;;;;;;5069640;28;20040;-79
2021/09/11 00:44:04;;;;;;;123.47;48.38;;;18.30;99.90;;;;;;5091531;28;20085;-79
2021/09/11 00:46:29;;;;;;;148.82;51.25;;;18.30;99.90;;;;;;5072936;28;20044;-80
2021/09/11 00:48:55;;;;;;;137.45;51.85;;;18.40;99.90;;;;;;5068411;28;20039;-79
2021/09/11 00:51:21;;;;;;;127.40;53.50;;;18.40;99.90;;;;;;5052796;28;20044;-80
2021/09/11 00:53:47;;;;;;;147.98;54.28;;;18.40;99.90;;;;;;5051247;28;20040;-80
2021/09/11 00:59:53;;;;;;;108.75;50.03;;;18.40;99.90;;;;;;5084900;28;20252;-80
2021/09/11 01:02:19;;;;;;;110.88;48.58;;;18.40;99.90;;;;;;5061676;28;20204;-79
2021/09/11 01:04:45;;;;;;;98.35;46.03;;;18.40;99.90;;;;;;5064431;28;20074;-79
2021/09/11 01:07:10;;;;;;;87.95;43.20;;;18.40;99.90;;;;;;5070342;28;20044;-80
2021/09/11 01:09:36;;;;;;;83.40;43.05;;;18.40;99.90;;;;;;5064954;28;20040;-79
2021/09/11 01:12:02;;;;;;;80.20;40.40;;;18.40;99.90;;;;;;5070912;28;20473;-80
2021/09/11 01:14:27;;;;;;;73.70;40.47;;;18.40;99.90;;;;;;5050929;28;20381;-79
2021/09/11 01:16:53;;;;;;;70.80;38.45;;;18.40;99.90;;;;;;5088986;28;20047;-80
2021/09/11 01:19:19;;;;;;;74.78;37.63;;;18.40;99.90;;;;;;5052233;28;20055;-80
2021/09/11 01:21:44;;;;;;;69.80;35.95;;;18.30;99.90;;;;;;5030734;28;20052;-79
2021/09/11 01:24:10;;;;;;;61.00;33.97;;;18.30;99.90;;;;;;5066892;28;20055;-80
2021/09/11 01:26:36;;;;;;;63.63;33.22;;;18.30;99.90;;;;;;5038709;28;20047;-79
2021/09/11 01:29:01;;;;;;;53.35;32.30;;;18.30;99.90;;;;;;5069203;28;20718;-78
2021/09/11 01:31:34;;;;;;;59.67;32.65;;;18.30;99.90;;;;;;5050370;28;20127;-80
2021/09/11 01:34:00;;;;;;;51.05;31.25;;;18.30;99.90;;;;;;5069010;28;20221;-80
2021/09/11 01:36:28;;;;;;;56.58;31.85;;;18.30;99.90;;;;;;5044617;28;20104;-80
2021/09/11 01:38:53;;;;;;;48.97;29.77;;;18.30;99.90;;;;;;5063196;28;20051;-80
2021/09/11 01:41:19;;;;;;;45.67;28.10;;;18.30;99.90;;;;;;5082734;28;20118;-79
2021/09/11 01:43:44;;;;;;;51.42;29.45;;;18.30;99.90;;;;;;5043880;28;20052;-80
2021/09/11 01:46:10;;;;;;;52.08;29.25;;;18.30;99.90;;;;;;5043332;28;20056;-79
2021/09/11 01:48:36;;;;;;;50.05;29.20;;;18.20;99.90;;;;;;5048136;28;20044;-80
2021/09/11 01:51:01;;;;;;;46.35;27.77;;;18.20;99.90;;;;;;5076708;28;20474;-79
2021/09/11 01:53:27;;;;;;;46.88;28.15;;;18.20;99.90;;;;;;5076018;28;20047;-80
2021/09/11 01:55:53;;;;;;;39.25;25.05;;;18.20;99.90;;;;;;5069200;28;20032;-79
2021/09/11 01:58:18;;;;;;;54.20;28.58;;;18.20;99.90;;;;;;5053956;28;20410;-79
2021/09/11 02:00:44;;;;;;;45.53;25.90;;;18.20;99.90;;;;;;5071770;28;20052;-79
2021/09/11 02:03:10;;;;;;;44.88;26.58;;;18.10;99.90;;;;;;5074794;28;20136;-80
2021/09/11 02:05:37;;;;;;;48.53;27.60;;;18.10;99.90;;;;;;5072863;28;20088;-80
2021/09/11 02:08:03;;;;;;;38.05;24.25;;;18.00;99.90;;;;;;5070668;28;20067;-79
2021/09/11 02:10:28;;;;;;;51.45;27.40;;;18.00;99.90;;;;;;5052417;28;20032;-80
2021/09/11 02:12:54;;;;;;;43.45;26.42;;;18.00;99.90;;;;;;5057736;28;20090;-79
2021/09/11 02:15:20;;;;;;;46.95;25.55;;;18.00;99.90;;;;;;5054220;28;20123;-79
2021/09/11 02:17:46;;;;;;;52.40;27.17;;;18.00;99.90;;;;;;5053143;28;20055;-80
2021/09/11 02:20:12;;;;;;;54.90;27.83;;;17.90;99.90;;;;;;5075542;28;20462;-79
2021/09/11 02:22:39;;;;;;;51.72;27.77;;;17.90;99.90;;;;;;5073529;28;20048;-80
2021/09/11 02:25:06;;;;;;;46.60;26.95;;;17.90;99.90;;;;;;5056428;28;20074;-79
2021/09/11 02:27:31;;;;;;;50.03;27.60;;;17.90;99.90;;;;;;5052491;28;20123;-81
2021/09/11 02:29:59;;;;;;;50.55;27.90;;;17.90;99.90;;;;;;5066176;28;20524;-79
2021/09/11 02:32:24;;;;;;;50.03;27.65;;;17.90;99.90;;;;;;5056701;28;20123;-79
2021/09/11 02:34:50;;;;;;;52.10;28.00;;;17.80;99.90;;;;;;5053498;28;20068;-79
2021/09/11 02:37:16;;;;;;;45.72;27.40;;;17.70;99.90;;;;;;5057131;28;20111;-79
2021/09/11 02:39:43;;;;;;;54.13;27.88;;;17.80;99.90;;;;;;5053451;28;20036;-80
2021/09/11 02:42:11;;;;;;;47.55;27.67;;;17.80;99.90;;;;;;5074488;28;20044;-80
2021/09/11 02:44:37;;;;;;;58.80;29.92;;;17.70;99.90;;;;;;5048542;28;20442;-80
2021/09/11 02:47:03;;;;;;;53.38;30.20;;;17.80;99.90;;;;;;5074227;28;20048;-79
2021/09/11 02:49:28;;;;;;;61.05;30.30;;;17.80;99.90;;;;;;5066517;28;20041;-79
2021/09/11 02:51:54;;;;;;;51.78;28.75;;;17.80;99.90;;;;;;5075089;28;20502;-79
2021/09/11 02:54:20;;;;;;;56.95;29.65;;;17.80;99.90;;;;;;5069892;28;20060;-79
2021/09/11 02:56:45;;;;;;;52.10;29.42;;;17.80;99.90;;;;;;5074273;28;20552;-80
2021/09/11 02:59:11;;;;;;;57.33;31.13;;;17.80;99.90;;;;;;5066600;28;20805;-79
2021/09/11 03:01:36;;;;;;;62.65;31.92;;;17.80;99.90;;;;;;5052755;28;20059;-79
2021/09/11 03:04:02;;;;;;;62.53;32.25;;;17.80;99.90;;;;;;5068221;28;20048;-79
2021/09/11 03:06:28;;;;;;;56.88;32.05;;;17.70;99.90;;;;;;5052587;28;20047;-79
2021/09/11 03:08:54;;;;;;;60.00;33.47;;;17.70;99.90;;;;;;5056462;28;20129;-79
2021/09/11 03:11:20;;;;;;;68.85;34.08;;;17.80;99.90;;;;;;5046574;28;20763;-78
2021/09/11 03:13:46;;;;;;;71.88;34.78;;;17.80;99.90;;;;;;5059900;28;20079;-79
2021/09/11 03:16:12;;;;;;;63.17;34.65;;;17.70;99.90;;;;;;5060416;28;20467;-78
2021/09/11 03:18:37;;;;;;;62.85;34.17;;;17.70;99.90;;;;;;5055069;28;20040;-79
2021/09/11 03:21:03;;;;;;;57.80;33.13;;;17.70;99.90;;;;;;5075501;28;20122;-79
2021/09/11 03:23:30;;;;;;;60.22;34.05;;;17.70;99.90;;;;;;5076833;28;20042;-79
2021/09/11 03:25:56;;;;;;;71.63;36.92;;;17.70;99.90;;;;;;5071369;28;20040;-78
2021/09/11 03:28:22;;;;;;;68.72;36.00;;;17.70;99.90;;;;;;5061409;28;20114;-79
2021/09/11 03:30:48;;;;;;;67.72;36.78;;;17.70;99.90;;;;;;5061680;28;20121;-79
2021/09/11 03:33:13;;;;;;;64.57;34.80;;;17.70;99.90;;;;;;5053815;28;20114;-79
2021/09/11 03:35:39;;;;;;;70.70;36.75;;;17.70;99.90;;;;;;5048397;28;20075;-79
2021/09/11 03:38:05;;;;;;;71.80;36.65;;;17.70;99.90;;;;;;5066444;28;20055;-79
2021/09/11 03:40:30;;;;;;;65.32;34.85;;;17.70;99.90;;;;;;5052039;28;20502;-79
2021/09/11 03:42:56;;;;;;;72.85;39.08;;;17.60;99.90;;;;;;5050524;28;20071;-79
2021/09/11 03:45:22;;;;;;;68.07;37.35;;;17.60;99.90;;;;;;5043762;28;20612;-79
2021/09/11 03:47:47;;;;;;;66.00;35.92;;;17.60;99.90;;;;;;5070296;28;20052;-79
2021/09/11 03:50:13;;;;;;;70.00;36.85;;;17.60;99.90;;;;;;5055717;28;20077;-79
2021/09/11 03:52:39;;;;;;;76.78;36.72;;;17.60;99.90;;;;;;5072734;28;20056;-79
2021/09/11 03:55:05;;;;;;;71.10;37.17;;;17.50;99.90;;;;;;5049626;28;20391;-79
2021/09/11 03:57:32;;;;;;;71.72;35.92;;;17.60;99.90;;;;;;5067175;28;20122;-79
2021/09/11 03:59:58;;;;;;;67.40;35.97;;;17.50;99.90;;;;;;5054798;28;20051;-78
2021/09/11 04:02:24;;;;;;;73.22;36.53;;;17.50;99.90;;;;;;5055539;28;20036;-79
2021/09/11 04:04:49;;;;;;;70.53;36.17;;;17.50;99.90;;;;;;5050606;28;20476;-78
2021/09/11 04:07:15;;;;;;;73.18;35.17;;;17.50;99.90;;;;;;5069799;28;20049;-79
2021/09/11 04:09:41;;;;;;;71.95;35.38;;;17.40;99.90;;;;;;5049263;28;20449;-80
2021/09/11 04:12:07;;;;;;;65.70;34.83;;;17.50;99.90;;;;;;5055693;28;20503;-79
2021/09/11 04:14:33;;;;;;;77.70;37.35;;;17.40;99.90;;;;;;5068945;28;20079;-80
2021/09/11 04:16:58;;;;;;;73.65;35.25;;;17.40;99.90;;;;;;5073082;28;20095;-79
2021/09/11 04:19:24;;;;;;;70.63;36.80;;;17.40;99.90;;;;;;5070654;28;20051;-80
2021/09/11 04:21:50;;;;;;;67.93;33.65;;;17.40;99.90;;;;;;5065569;28;20044;-79
2021/09/11 04:24:15;;;;;;;61.92;33.75;;;17.40;99.90;;;;;;5069754;28;20379;-79
2021/09/11 04:26:41;;;;;;;67.93;33.53;;;17.30;99.90;;;;;;5064559;28;20441;-80
2021/09/11 04:29:07;;;;;;;68.32;35.00;;;17.30;99.90;;;;;;5038823;28;20421;-79
2021/09/11 04:31:33;;;;;;;64.80;32.10;;;17.20;99.90;;;;;;5066705;28;20139;-80
2021/09/11 04:33:59;;;;;;;71.13;32.63;;;17.20;99.90;;;;;;5063476;28;20123;-79
2021/09/11 04:36:25;;;;;;;62.05;29.85;;;17.20;99.90;;;;;;5061372;28;20087;-79
2021/09/11 04:38:50;;;;;;;67.10;31.38;;;17.20;99.90;;;;;;5052868;28;20055;-79
2021/09/11 04:41:16;;;;;;;51.95;29.63;;;17.10;99.90;;;;;;5052240;28;20467;-79
2021/09/11 04:43:42;;;;;;;57.28;28.70;;;17.10;99.90;;;;;;5069156;28;20484;-79
2021/09/11 04:46:07;;;;;;;64.15;29.52;;;17.10;99.90;;;;;;5070622;28;20086;-80
2021/09/11 04:48:33;;;;;;;50.05;27.95;;;17.10;99.90;;;;;;5063467;28;20085;-80
2021/09/11 04:50:59;;;;;;;61.08;28.60;;;17.10;99.90;;;;;;5037847;28;20041;-79
2021/09/11 04:53:25;;;;;;;63.22;26.70;;;17.10;99.90;;;;;;5047562;28;20047;-79
2021/09/11 04:55:51;;;;;;;59.55;27.63;;;17.10;99.90;;;;;;5054865;28;20483;-80
2021/09/11 04:58:16;;;;;;;62.03;26.98;;;17.10;99.90;;;;;;5052667;28;20139;-80
2021/09/11 05:00:42;;;;;;;60.42;26.95;;;17.10;99.90;;;;;;5046812;28;20486;-80
2021/09/11 05:03:08;;;;;;;56.35;26.30;;;17.10;99.90;;;;;;5049532;28;20400;-79
2021/09/11 05:05:34;;;;;;;51.97;24.67;;;17.10;99.90;;;;;;5070662;28;20365;-80
2021/09/11 05:07:59;;;;;;;46.25;22.98;;;17.10;99.90;;;;;;5056370;28;20068;-79
2021/09/11 05:10:26;;;;;;;44.20;22.85;;;17.00;99.90;;;;;;5072994;28;20051;-80
2021/09/11 05:12:52;;;;;;;52.85;22.52;;;17.10;99.90;;;;;;5052684;28;20061;-79
2021/09/11 05:15:18;;;;;;;42.45;21.55;;;17.00;99.90;;;;;;5050709;28;20067;-79
2021/09/11 05:17:45;;;;;;;44.40;20.85;;;17.10;99.90;;;;;;5070605;28;20055;-80
2021/09/11 05:20:11;;;;;;;41.47;20.65;;;17.10;99.90;;;;;;5064622;28;20110;-79
2021/09/11 05:22:37;;;;;;;44.53;20.38;;;17.00;99.90;;;;;;5047010;28;20052;-80
2021/09/11 05:25:06;;;;;;;37.28;19.73;;;17.00;99.90;;;;;;5050757;28;20352;-79
2021/09/11 05:27:32;;;;;;;41.03;19.65;;;17.00;99.90;;;;;;5046323;28;20049;-80
2021/09/11 05:29:57;;;;;;;35.13;18.88;;;17.00;99.90;;;;;;5060052;28;20052;-79
2021/09/11 05:32:23;;;;;;;39.65;19.60;;;17.00;99.90;;;;;;5061595;28;20090;-79
2021/09/11 05:34:49;;;;;;;40.45;20.00;;;17.00;99.90;;;;;;5061591;28;20090;-79
2021/09/11 05:37:14;;;;;;;41.72;19.33;;;17.00;99.90;;;;;;5054219;28;20337;-79
2021/09/11 05:39:40;;;;;;;39.25;19.58;;;17.00;99.90;;;;;;5046256;28;20044;-80
2021/09/11 05:42:07;;;;;;;37.05;18.73;;;17.00;99.90;;;;;;5069197;28;20464;-79
2021/09/11 05:44:33;;;;;;;42.42;20.33;;;17.00;99.90;;;;;;5067588;28;20059;-81
2021/09/11 05:46:59;;;;;;;41.80;20.02;;;17.00;99.90;;;;;;5072167;28;20063;-80
2021/09/11 05:49:26;;;;;;;43.78;20.10;;;17.00;99.90;;;;;;5041431;28;20436;-79
2021/09/11 05:51:52;;;;;;;41.63;19.95;;;16.80;99.90;;;;;;5067254;28;20047;-79
2021/09/11 05:54:18;;;;;;;41.10;19.92;;;17.00;99.90;;;;;;5059640;28;20045;-79
2021/09/11 05:56:43;;;;;;;43.65;20.45;;;17.00;99.90;;;;;;5066131;28;20032;-80
2021/09/11 05:59:09;;;;;;;40.92;20.98;;;17.00;99.90;;;;;;5087330;28;20091;-80
2021/09/11 06:01:35;;;;;;;43.38;21.02;;;16.90;99.90;;;;;;5066029;28;20070;-81
2021/09/11 06:04:01;;;;;;;45.30;21.85;;;17.00;99.90;;;;;;5045635;28;20142;-80
2021/09/11 06:06:27;;;;;;;44.47;20.52;;;17.00;99.90;;;;;;5049217;28;20104;-80
2021/09/11 06:08:54;;;;;;;46.35;22.13;;;17.00;99.90;;;;;;5047443;28;20124;-80
2021/09/11 06:11:20;;;;;;;40.60;21.98;;;17.00;99.90;;;;;;5066284;28;20048;-80
2021/09/11 06:13:45;;;;;;;42.50;22.65;;;17.00;99.90;;;;;;5067821;28;20490;-80
2021/09/11 06:16:11;;;;;;;45.58;21.83;;;17.00;99.90;;;;;;5062735;28;20116;-79
2021/09/11 06:18:37;;;;;;;43.58;23.27;;;17.10;99.90;;;;;;5049533;28;20432;-80
2021/09/11 06:21:03;;;;;;;43.15;23.23;;;17.00;99.90;;;;;;5072669;28;20089;-80
2021/09/11 06:23:29;;;;;;;45.58;23.70;;;17.00;99.90;;;;;;5088828;28;20432;-80
2021/09/11 06:25:55;;;;;;;46.08;24.35;;;17.10;99.90;;;;;;5056303;28;20177;-79
2021/09/11 06:28:23;;;;;;;43.22;23.33;;;17.10;99.90;;;;;;5072580;28;20408;-80
2021/09/11 06:30:50;;;;;;;52.60;24.33;;;17.10;99.90;;;;;;5050009;28;20182;-80
2021/09/11 06:33:16;;;;;;;50.70;23.77;;;17.10;99.90;;;;;;5067399;28;20040;-80
2021/09/11 06:35:41;;;;;;;51.22;25.80;;;17.10;99.90;;;;;;5057692;28;20165;-80
2021/09/11 06:38:07;;;;;;;47.63;25.20;;;17.20;99.90;;;;;;5052354;28;20105;-80
2021/09/11 06:40:32;;;;;;;52.40;25.77;;;17.30;99.90;;;;;;5072446;28;20480;-79
2021/09/11 06:42:58;;;;;;;53.42;25.80;;;17.30;99.90;;;;;;5054150;28;20063;-76
2021/09/11 06:45:24;;;;;;;53.33;26.15;;;17.40;99.90;;;;;;5067333;28;20071;-78
2021/09/11 06:47:49;;;;;;;45.55;26.02;;;17.40;99.90;;;;;;5051517;28;20133;-77
2021/09/11 06:50:16;;;;;;;51.58;26.40;;;17.40;99.90;;;;;;5071557;28;20521;-80
2021/09/11 06:52:42;;;;;;;53.60;27.65;;;17.50;99.90;;;;;;5050804;28;20157;-80
2021/09/11 06:55:13;;;;;;;51.67;26.52;;;17.50;99.90;;;;;;5073036;28;20055;-79
2021/09/11 06:57:39;;;;;;;57.15;26.55;;;17.50;99.90;;;;;;5051234;28;20051;-79
2021/09/11 07:00:07;;;;;;;55.28;27.63;;;17.50;99.90;;;;;;5048946;28;20049;-81
2021/09/11 07:02:32;;;;;;;54.20;28.02;;;17.60;99.90;;;;;;5057819;28;20036;-81
2021/09/11 07:04:58;;;;;;;54.88;28.45;;;17.60;99.90;;;;;;5096204;28;20133;-80
2021/09/11 07:07:24;;;;;;;53.78;28.95;;;17.60;99.90;;;;;;5057108;28;22075;-78
2021/09/11 07:09:49;;;;;;;53.97;29.42;;;17.60;99.90;;;;;;5044707;28;20101;-79
2021/09/11 07:12:16;;;;;;;54.63;29.70;;;17.70;99.90;;;;;;5070943;28;20455;-80
2021/09/11 07:14:48;;;;;;;55.58;29.30;;;17.70;99.90;;;;;;5069538;28;20546;-80
2021/09/11 07:17:14;;;;;;;48.60;29.05;;;17.80;99.90;;;;;;5072790;28;20463;-80
2021/09/11 07:19:40;;;;;;;53.30;29.30;;;17.80;99.90;;;;;;5072334;28;20094;-80
2021/09/11 07:22:05;;;;;;;49.22;29.48;;;17.90;99.90;;;;;;5054086;28;20052;-79
2021/09/11 07:24:31;;;;;;;54.22;30.05;;;17.90;99.90;;;;;;5053435;28;20087;-82
2021/09/11 07:26:57;;;;;;;48.30;28.77;;;17.90;99.90;;;;;;5056035;28;20107;-80
2021/09/11 07:29:23;;;;;;;54.08;30.75;;;18.00;99.90;;;;;;5054002;28;20490;-79
2021/09/11 07:31:50;;;;;;;48.00;29.35;;;18.10;99.90;;;;;;5054841;28;20514;-81
2021/09/11 07:34:16;;;;;;;54.33;30.73;;;18.30;99.90;;;;;;5089796;28;20036;-81
2021/09/11 07:36:42;;;;;;;49.80;29.08;;;18.40;99.90;;;;;;5056608;28;20043;-80
2021/09/11 07:39:08;;;;;;;55.97;30.38;;;18.40;99.90;;;;;;5070374;28;20372;-81
2021/09/11 07:41:34;;;;;;;46.88;29.67;;;18.40;99.90;;;;;;5054744;28;20044;-81
2021/09/11 07:44:00;;;;;;;52.78;30.08;;;18.50;99.90;;;;;;5056556;28;20398;-82
2021/09/11 07:46:25;;;;;;;51.35;28.52;;;18.40;99.90;;;;;;5090462;28;20123;-81
2021/09/11 07:48:51;;;;;;;49.53;29.85;;;18.50;99.90;;;;;;5088241;28;20072;-81
2021/09/11 07:51:17;;;;;;;58.83;30.38;;;18.40;99.90;;;;;;5058350;28;20048;-81
2021/09/11 07:53:42;;;;;;;50.08;30.00;;;18.50;99.90;;;;;;5055242;28;20044;-81
2021/09/11 07:56:08;;;;;;;48.75;29.55;;;18.40;99.90;;;;;;5072789;28;20101;-80
2021/09/11 07:58:34;;;;;;;39.83;21.38;;;18.40;99.90;;;;;;5056406;28;20349;-82
2021/09/11 08:01:00;;;;;;;34.50;20.20;;;18.50;99.90;;;;;;5072074;28;20074;-81
2021/09/11 08:03:27;;;;;;;44.08;25.75;;;18.80;99.90;;;;;;5069710;28;20391;-81
2021/09/11 08:05:54;;;;;;;38.95;24.77;;;18.90;99.90;;;;;;5073809;28;20048;-81
2021/09/11 08:08:20;;;;;;;36.70;24.85;;;19.00;99.90;;;;;;5075239;28;20051;-80
2021/09/11 08:10:45;;;;;;;34.05;21.92;;;19.10;99.90;;;;;;5075018;28;20048;-80
2021/09/11 08:13:15;;;;;;;34.95;22.83;;;19.20;99.90;;;;;;5055451;28;20122;-80
2021/09/11 08:15:45;;;;;;;39.10;24.10;;;19.20;99.90;;;;;;5068295;28;20112;-84
2021/09/11 08:18:11;;;;;;;33.00;23.60;;;19.20;99.90;;;;;;5054109;28;20040;-83
2021/09/11 08:20:38;;;;;;;35.10;24.33;;;19.20;99.90;;;;;;5040039;28;20126;-80
2021/09/11 08:23:05;;;;;;;40.38;26.52;;;19.30;99.90;;;;;;5067525;28;20073;-84
2021/09/11 08:25:31;;;;;;;43.78;26.95;;;19.20;99.90;;;;;;5050058;28;20039;-85
2021/09/11 08:27:57;;;;;;;37.15;26.73;;;19.10;99.90;;;;;;5089406;28;20048;-80
2021/09/11 08:30:23;;;;;;;50.97;26.85;;;18.80;99.90;;;;;;5053834;28;20050;-80
2021/09/11 08:32:49;;;;;;;46.58;27.00;;;18.80;99.90;;;;;;5069961;28;20047;-82
2021/09/11 08:35:16;;;;;;;44.67;27.13;;;18.70;99.90;;;;;;5052329;28;20055;-81
2021/09/11 08:37:42;;;;;;;40.20;26.25;;;18.60;99.90;;;;;;5072190;28;20110;-83
2021/09/11 08:40:09;;;;;;;51.90;27.73;;;18.60;99.90;;;;;;5051997;28;20048;-81
2021/09/11 08:42:35;;;;;;;41.00;26.35;;;18.60;99.90;;;;;;5088593;28;20051;-81
2021/09/11 08:45:02;;;;;;;53.33;27.25;;;18.50;99.90;;;;;;5067364;28;20067;-82
2021/09/11 08:47:27;;;;;;;45.22;27.73;;;18.50;99.90;;;;;;5069565;28;20055;-82
2021/09/11 08:49:53;;;;;;;46.63;26.15;;;18.50;99.90;;;;;;5050279;28;20052;-82
2021/09/11 08:52:19;;;;;;;39.10;22.40;;;18.60;99.90;;;;;;5070978;28;20056;-80
2021/09/11 08:54:44;;;;;;;26.92;17.88;;;18.60;99.90;;;;;;5050130;28;20126;-80
2021/09/11 08:57:25;;;;;;;36.25;23.83;;;18.80;99.90;;;;;;5054578;28;20353;-80
2021/09/11 08:59:52;;;;;;;40.03;25.15;;;18.90;99.90;;;;;;5070452;28;20051;-79
2021/09/11 09:02:20;;;;;;;30.75;19.95;;;19.10;99.90;;;;;;5066733;28;20060;-79
2021/09/11 09:04:58;;;;;;;38.03;23.73;;;19.30;99.90;;;;;;5054884;28;20321;-82
2021/09/11 09:07:43;;;;;;;30.30;22.98;;;19.30;99.90;;;;;;5038011;28;20084;-80
2021/09/11 09:10:09;;;;;;;32.10;18.20;;;19.50;99.90;;;;;;5050111;28;20052;-82
2021/09/11 09:12:40;;;;;;;42.17;24.90;;;19.60;99.90;;;;;;5042852;28;20124;-83
2021/09/11 09:15:09;;;;;;;39.85;23.38;;;19.50;99.90;;;;;;5079457;28;20048;-81
2021/09/11 09:17:43;;;;;;;33.05;20.58;;;19.60;99.90;;;;;;5051613;28;20073;-82
2021/09/11 09:20:11;;;;;;;36.92;23.52;;;19.60;99.90;;;;;;5049053;28;20135;-81
2021/09/11 09:22:37;;;;;;;32.90;22.98;;;19.60;99.90;;;;;;5090674;28;20147;-83
2021/09/11 09:25:03;;;;;;;32.22;20.83;;;19.70;99.90;;;;;;5084671;28;20075;-81
2021/09/11 09:27:29;;;;;;;37.17;23.20;;;19.70;99.90;;;;;;5062843;28;20051;-82
2021/09/11 09:30:01;;;;;;;33.80;24.55;;;19.90;99.90;;;;;;5044267;28;20140;-80
2021/09/11 09:32:37;;;;;;;43.78;24.38;;;19.90;99.90;;;;;;5065893;28;20204;-79
2021/09/11 09:35:16;;;;;;;37.83;23.02;;;20.00;99.90;;;;;;5064921;28;20055;-79
2021/09/11 09:38:23;;;;;;;36.50;23.67;;;20.00;99.90;;;;;;5071060;28;20360;-82
2021/09/11 09:40:53;;;;;;;32.10;19.90;;;20.00;99.90;;;;;;4984069;28;20129;-79
2021/09/11 09:43:40;;;;;;;37.13;23.38;;;20.20;99.90;;;;;;4965890;28;20086;-79
2021/09/11 09:46:13;;;;;;;29.98;19.10;;;20.20;99.90;;;;;;4960516;28;20101;-79
2021/09/11 09:48:42;;;;;;;36.05;23.13;;;20.20;99.90;;;;;;4968256;28;20046;-80
2021/09/11 09:51:13;;;;;;;36.70;22.33;;;20.20;99.90;;;;;;4951087;28;20046;-78
2021/09/11 09:53:41;;;;;;;31.83;22.75;;;20.50;99.90;;;;;;4954265;28;20050;-79
2021/09/11 09:56:07;;;;;;;27.33;17.40;;;20.60;99.90;;;;;;4960716;28;20178;-79
2021/09/11 09:58:34;;;;;;;36.45;20.85;;;20.60;99.90;;;;;;4967861;28;20137;-79
2021/09/11 10:01:00;;;;;;;29.23;20.38;;;20.70;99.90;;;;;;4988747;28;20050;-78
2021/09/11 10:03:26;;;;;;;28.17;18.45;;;20.80;99.90;;;;;;4947272;28;20049;-80
2021/09/11 10:06:05;;;;;;;35.13;21.58;;;20.80;99.90;;;;;;4962842;28;20039;-77
2021/09/11 10:08:37;;;;;;;31.02;21.27;;;20.60;99.90;;;;;;4978835;28;20438;-79
2021/09/11 10:11:10;;;;;;;31.35;20.65;;;20.60;99.90;;;;;;4957196;28;20058;-79
2021/09/11 10:13:36;;;;;;;29.55;18.65;;;20.50;99.90;;;;;;4964229;28;20046;-78
2021/09/11 10:16:09;;;;;;;32.17;19.85;;;20.60;99.90;;;;;;4986823;28;20057;-76
2021/09/11 10:18:38;;;;;;;30.63;20.48;;;20.60;99.90;;;;;;5034658;28;20068;-79
2021/09/11 10:21:38;;;;;;;31.25;20.38;;;20.60;99.90;;;;;;5052411;28;20212;-75
2021/09/11 10:24:03;;;;;;;28.58;19.23;;;20.40;99.90;;;;;;5047261;28;20071;-76
2021/09/11 10:26:54;;;;;;;30.13;18.23;;;20.40;99.90;;;;;;5070924;28;20115;-76
2021/09/11 10:29:32;;;;;;;29.67;19.77;;;20.50;99.90;;;;;;5071454;28;20152;-76
2021/09/11 10:32:11;;;;;;;28.70;19.50;;;20.60;99.90;;;;;;5055212;28;20063;-76
2021/09/11 10:35:03;;;;;;;30.48;19.45;;;20.60;99.90;;;;;;5047056;28;20067;-77
2021/09/11 10:37:45;;;;;;;29.60;19.35;;;20.60;99.90;;;;;;5070848;28;20076;-76
2021/09/11 10:40:22;;;;;;;26.45;17.85;;;20.70;99.90;;;;;;5055783;28;20036;-76
2021/09/11 10:43:06;;;;;;;25.67;18.70;;;20.60;99.90;;;;;;5068008;28;20048;-76
2021/09/11 10:45:40;;;;;;;26.92;17.75;;;20.60;99.90;;;;;;5067417;28;20053;-77
2021/09/11 10:48:26;;;;;;;23.60;17.00;;;20.60;99.90;;;;;;5067274;28;20086;-78
2021/09/11 10:50:51;;;;;;;21.25;15.32;;;20.60;99.90;;;;;;5046699;28;20760;-77
2021/09/11 10:53:24;;;;;;;21.65;15.05;;;20.60;99.90;;;;;;5070781;28;20028;-77
2021/09/11 10:55:50;;;;;;;23.00;15.63;;;20.60;99.90;;;;;;5069198;28;20068;-80
2021/09/11 10:58:27;;;;;;;24.60;15.30;;;20.60;99.90;;;;;;5064639;28;20053;-76
2021/09/11 11:01:01;;;;;;;24.85;15.60;;;20.50;99.90;;;;;;5070271;28;20357;-78
2021/09/11 11:03:27;;;;;;;19.80;13.02;;;20.60;99.90;;;;;;5064568;28;20053;-77
2021/09/11 11:06:04;;;;;;;24.38;14.48;;;20.60;99.90;;;;;;5067765;28;20109;-77
2021/09/11 11:08:31;;;;;;;22.02;14.68;;;20.60;99.90;;;;;;5066144;28;20051;-79
2021/09/11 11:10:58;;;;;;;20.63;14.32;;;20.60;99.90;;;;;;5066843;28;20318;-79
2021/09/11 11:13:24;;;;;;;23.15;13.98;;;20.60;99.90;;;;;;5048759;28;20448;-78
2021/09/11 11:15:55;;;;;;;19.48;11.77;;;20.70;99.90;;;;;;5061634;28;20048;-79
2021/09/11 11:18:21;;;;;;;19.83;11.35;;;20.70;99.90;;;;;;5047514;28;20045;-78
2021/09/11 11:20:47;;;;;;;22.15;12.65;;;20.80;99.90;;;;;;5065943;28;20484;-78
2021/09/11 11:23:13;;;;;;;19.67;11.85;;;20.80;99.90;;;;;;5067687;28;20057;-76
2021/09/11 11:25:41;;;;;;;22.88;12.63;;;20.80;99.90;;;;;;5053841;28;20442;-77
2021/09/11 11:28:09;;;;;;;17.98;12.13;;;20.90;99.90;;;;;;5069593;28;20060;-78
2021/09/11 11:30:36;;;;;;;19.00;11.45;;;20.80;99.90;;;;;;5070774;28;20502;-77
2021/09/11 11:33:04;;;;;;;18.67;10.93;;;20.90;99.90;;;;;;5043210;28;20063;-79
2021/09/11 11:35:30;;;;;;;16.23;10.85;;;20.90;99.90;;;;;;5065590;28;20047;-78
2021/09/11 11:37:57;;;;;;;18.73;12.30;;;21.10;99.90;;;;;;5053192;28;20371;-80
2021/09/11 11:40:23;;;;;;;18.63;11.30;;;21.10;99.90;;;;;;5048756;28;20048;-76
2021/09/11 11:42:49;;;;;;;18.98;11.68;;;21.10;99.90;;;;;;5068534;28;20048;-78
2021/09/11 11:45:16;;;;;;;18.42;12.50;;;21.10;99.90;;;;;;5067010;28;20044;-78
2021/09/11 11:47:44;;;;;;;21.90;12.73;;;20.90;99.90;;;;;;5050655;28;20061;-77
2021/09/11 11:50:28;;;;;;;23.63;10.93;;;20.80;99.90;;;;;;5056227;28;20036;-78
2021/09/11 11:53:07;;;;;;;20.10;12.00;;;21.00;99.90;;;;;;5066484;28;20127;-77
2021/09/11 11:55:38;;;;;;;16.25;11.65;;;21.00;99.90;;;;;;5067434;28;20075;-78
2021/09/11 11:58:18;;;;;;;19.13;11.90;;;21.20;99.90;;;;;;5067430;28;20153;-77
2021/09/11 12:00:58;;;;;;;18.98;11.65;;;21.30;99.90;;;;;;5049850;28;20353;-79
2021/09/11 12:03:43;;;;;;;15.65;11.05;;;21.30;99.90;;;;;;5066504;28;20055;-78
2021/09/11 12:06:15;;;;;;;15.50;9.90;;;21.30;99.90;;;;;;5067879;28;20139;-77
2021/09/11 12:08:41;;;;;;;18.33;10.40;;;21.20;99.90;;;;;;5051546;28;20384;-80
2021/09/11 12:11:22;;;;;;;17.83;10.10;;;21.10;99.90;;;;;;5052626;28;20106;-82
2021/09/11 12:14:03;;;;;;;16.27;9.98;;;21.20;99.90;;;;;;5066238;28;20107;-78
2021/09/11 12:16:30;;;;;;;15.85;8.98;;;21.20;99.90;;;;;;5069896;28;20354;-77
2021/09/11 12:19:09;;;;;;;15.20;10.27;;;21.30;99.90;;;;;;5051248;28;20071;-76
2021/09/11 12:21:35;;;;;;;16.17;10.43;;;21.20;99.90;;;;;;5066426;28;20053;-77
2021/09/11 12:24:01;;;;;;;20.27;10.85;;;21.40;99.90;;;;;;5049675;28;20040;-77
2021/09/11 12:26:29;;;;;;;16.80;10.88;;;21.60;99.90;;;;;;5069432;28;20403;-77
2021/09/11 12:29:08;;;;;;;16.98;10.65;;;21.70;99.90;;;;;;5048880;28;20056;-77
2021/09/11 12:31:39;;;;;;;18.30;10.82;;;21.60;99.90;;;;;;5049509;28;20120;-78
2021/09/11 12:34:15;;;;;;;16.80;9.70;;;21.60;99.90;;;;;;5030947;28;20041;-77
2021/09/11 12:36:42;;;;;;;17.02;11.00;;;21.60;99.90;;;;;;5030002;28;20172;-77